Portada
METAR-TAF:

METAR-TAF

Aeroports :

Puerto Limón, Costa Rica

latitud: 10-00N, longitud: 083-03W, altitud: 5 m

Observació

L'informe es va fer fa 11 hores i 37 minuts, a les 00:00 UTC
Vent 3 kt del Oest
Temperatura 27°C
Humitat 84%
Pressió 1010 hPa
Visibilitat 10 km o més
Escasses núvols a una alçada de 1500 ft
Cel ennuvolat a una alçada de 20000 ft

METAR: MRLM 090000Z 27003KT 9999 FEW015 BKN200 27/24 A2983

Hora: 05:37 (11:37 UTC)

Pronòstic

L'informe es va fer fa 6 hores i 37 minuts, a les 05:00 UTC
Pronòstic vàlid del 09 a les 06 UTC al 10 a les 06 UTC
Vent 6 kt del Oest/Sud-Oest
Visibilitat 10 km o més
Escasses núvols a una alçada de 2000 ft
Evolucionant progressivament
l' 09 a les 15 UTC al 09 a les 18 UTC
Vent 5 kt del Nord-Est
Evolucionant progressivament
l' 10 a les 00 UTC al 10 a les 03 UTC
Vent 5 kt del Oest

TAF: MRLM 090500Z 0906/1006 25006KT 9999 FEW020 TX30/0920Z TN22/0911Z BECMG 0915/0918 04005KT BECMG 1000/1003 26005KT

Observacions i pronòstics meteorològics de més de 4000 aeroports (METAR i TAF).

Les estacions disponibles són els punts grocs i vermells al mapa.

Posi el ratolí al punt desitjat per veure el nom de l'estació.

Feu clic per veure les observacions i els pronòstics meteorològics.

Per canviar el mapa: feu clic els botons verds amb una creu de color negre per apropar; al botó verd amb un guió per allunyar la imatge; o en les fletxes verdes per a mapes adjacents.


METAR-TAF: